Time;durP1;ratioP1;P1;durP2;ratioP2;P2;SDS_P1;SDS_P2;PMS_P1;PMS_P2;Temp;Humidity;BMP_temperature;BMP_pressure;BME280_temperature;BME280_humidity;BME280_pressure;Samples;Min_cycle;Max_cycle;Signal;HPM_P1;HPM_P2
2022/04/21 00:00:11;;;;;;;0.10;0.10;;;;;;;12.99;55.51;101581.81;4997023;28;20022;-85
2022/04/21 00:02:37;;;;;;;0.43;0.43;;;;;;;12.99;55.34;101581.81;4987445;28;20039;-85
2022/04/21 00:05:04;;;;;;;0.00;0.00;;;;;;;12.96;55.99;101588.06;4992325;28;20159;-85
2022/04/21 00:07:30;;;;;;;0.85;0.85;;;;;;;12.93;56.54;101582.78;4990228;28;20406;-84
2022/04/21 00:09:56;;;;;;;0.10;0.10;;;;;;;12.92;56.42;101581.03;4994803;28;20065;-85
2022/04/21 00:12:23;;;;;;;1.02;1.02;;;;;;;12.89;56.64;101579.28;4987124;28;20078;-85
2022/04/21 00:14:49;;;;;;;0.10;0.10;;;;;;;12.85;55.61;101580.25;4983256;28;20441;-85
2022/04/21 00:17:15;;;;;;;0.10;0.10;;;;;;;12.83;56.31;101579.41;4984255;28;20027;-85
2022/04/21 00:19:41;;;;;;;0.10;0.10;;;;;;;12.80;55.23;101576.81;4991988;28;20030;-85
2022/04/21 00:24:53;;;;;;;0.00;0.00;;;;;;;12.73;56.25;101570.72;4985448;28;20077;-85
2022/04/21 00:27:19;;;;;;;0.10;0.10;;;;;;;12.71;55.67;101563.66;4988777;28;20491;-85
2022/04/21 00:29:45;;;;;;;0.00;0.00;;;;;;;12.68;56.21;101571.72;4986244;28;20030;-86
2022/04/21 00:32:12;;;;;;;2.85;1.45;;;;;;;12.65;56.29;101566.44;4982526;28;20084;-85
2022/04/21 00:34:38;;;;;;;2.08;1.35;;;;;;;12.62;56.84;101562.03;4985982;28;20026;-85
2022/04/21 00:37:05;;;;;;;0.17;0.17;;;;;;;12.60;56.51;101569.19;4989378;28;20030;-84
2022/04/21 00:39:32;;;;;;;0.10;0.10;;;;;;;12.58;56.59;101571.84;4982071;28;20406;-84
2022/04/21 00:42:00;;;;;;;0.03;0.03;;;;;;;12.57;56.36;101569.22;4993225;28;20037;-85
2022/04/21 00:44:27;;;;;;;0.00;0.00;;;;;;;12.53;56.57;101573.72;4992067;28;20037;-84
2022/04/21 00:46:57;;;;;;;0.10;0.10;;;;;;;12.53;56.66;101568.38;4986150;28;20058;-85
2022/04/21 00:49:25;;;;;;;0.00;0.00;;;;;;;12.50;56.87;101563.13;4996817;28;20116;-85
2022/04/21 00:51:52;;;;;;;0.40;0.40;;;;;;;12.51;55.59;101564.91;4992105;28;20036;-85
2022/04/21 00:54:19;;;;;;;0.08;0.08;;;;;;;12.51;55.95;101564.00;4987887;28;20045;-85
2022/04/21 00:56:47;;;;;;;0.10;0.10;;;;;;;12.49;55.19;101560.50;4992399;28;20030;-85
2022/04/21 00:59:14;;;;;;;0.45;0.45;;;;;;;12.46;56.54;101566.72;4988762;28;20060;-85
2022/04/21 01:04:26;;;;;;;0.10;0.10;;;;;;;12.40;56.24;101564.16;4991021;28;20057;-85
2022/04/21 01:06:54;;;;;;;0.10;0.10;;;;;;;12.36;57.04;101559.81;4993525;28;20533;-85
2022/04/21 01:09:21;;;;;;;0.00;0.00;;;;;;;12.33;56.88;101565.19;4990083;28;20049;-85
2022/04/21 01:11:49;;;;;;;0.00;0.00;;;;;;;12.32;56.09;101574.06;4994947;28;20048;-85
2022/04/21 01:14:16;;;;;;;0.08;0.08;;;;;;;12.27;55.96;101567.06;4993934;28;20105;-85
2022/04/21 01:16:43;;;;;;;0.08;0.08;;;;;;;12.25;56.00;101563.53;4992657;28;20038;-85
2022/04/21 01:19:09;;;;;;;0.10;0.10;;;;;;;12.22;57.07;101579.50;4988502;28;20042;-86
2022/04/21 01:21:35;;;;;;;4.72;0.70;;;;;;;12.19;56.79;101568.94;4985464;28;20092;-85
2022/04/21 01:24:04;;;;;;;0.65;0.65;;;;;;;12.17;56.45;101575.19;4985710;28;20434;-85
2022/04/21 01:26:35;;;;;;;0.10;0.10;;;;;;;12.14;56.17;101565.47;4993286;28;20417;-85
2022/04/21 01:29:03;;;;;;;0.10;0.10;;;;;;;12.13;56.96;101563.72;4987814;28;20049;-85
2022/04/21 01:31:30;;;;;;;0.03;0.03;;;;;;;12.10;57.07;101561.09;4990982;28;20030;-85
2022/04/21 01:33:57;;;;;;;0.63;0.63;;;;;;;12.09;56.71;101564.66;4980083;28;20113;-85
2022/04/21 01:36:24;;;;;;;0.10;0.10;;;;;;;12.08;56.71;101571.75;4990911;28;20022;-85
2022/04/21 01:41:36;;;;;;;0.10;0.10;;;;;;;12.04;56.33;101570.03;4979509;28;20073;-85
2022/04/21 01:44:03;;;;;;;0.10;0.10;;;;;;;12.01;56.80;101569.19;4986098;28;20048;-85
2022/04/21 01:46:29;;;;;;;0.00;0.00;;;;;;;11.98;55.91;101565.69;4990687;28;20023;-85
2022/04/21 01:48:55;;;;;;;0.05;0.05;;;;;;;11.96;56.55;101564.84;4995833;28;20034;-85
2022/04/21 01:51:21;;;;;;;0.05;0.05;;;;;;;11.93;56.35;101562.19;4992447;28;20062;-85
2022/04/21 01:53:48;;;;;;;0.10;0.10;;;;;;;11.92;55.57;101556.91;4983798;28;20027;-85
2022/04/21 01:56:14;;;;;;;0.10;0.10;;;;;;;11.90;55.52;101562.25;4993241;28;20034;-85
2022/04/21 01:58:41;;;;;;;0.10;0.10;;;;;;;11.89;55.97;101560.47;4994557;28;20177;-85
2022/04/21 02:01:07;;;;;;;0.10;0.10;;;;;;;11.88;56.67;101556.06;4990320;28;20029;-85
2022/04/21 02:03:34;;;;;;;0.10;0.10;;;;;;;11.85;56.59;101558.78;4987510;28;20037;-85
2022/04/21 02:06:00;;;;;;;0.00;0.00;;;;;;;11.83;56.42;101560.56;4990897;28;20034;-85
2022/04/21 02:08:27;;;;;;;0.10;0.10;;;;;;;11.81;57.06;101559.69;4992906;28;20030;-85
2022/04/21 02:10:54;;;;;;;0.10;0.10;;;;;;;11.78;56.50;101557.09;4991604;28;20533;-85
2022/04/21 02:13:20;;;;;;;0.10;0.10;;;;;;;11.75;57.04;101557.13;4992382;28;20039;-84
2022/04/21 02:15:46;;;;;;;0.00;0.00;;;;;;;11.73;57.28;101559.81;4989461;28;20508;-85
2022/04/21 02:18:14;;;;;;;0.05;0.05;;;;;;;11.71;57.66;101560.72;4991532;28;20090;-85
2022/04/21 02:20:40;;;;;;;0.10;0.10;;;;;;;11.69;56.94;101554.53;4992169;28;20042;-85
2022/04/21 02:23:06;;;;;;;0.10;0.10;;;;;;;11.65;56.23;101562.56;4988857;28;20034;-85
2022/04/21 02:25:32;;;;;;;0.10;0.10;;;;;;;11.63;57.08;101552.88;4990959;28;20504;-85
2022/04/21 02:27:58;;;;;;;0.10;0.10;;;;;;;11.59;57.17;101552.03;4992887;28;20117;-85
2022/04/21 02:30:24;;;;;;;0.10;0.10;;;;;;;11.56;57.88;101549.41;4984341;28;20430;-85
2022/04/21 02:32:51;;;;;;;0.30;0.30;;;;;;;11.57;57.89;101551.16;4988893;28;20035;-85
2022/04/21 02:35:17;;;;;;;0.20;0.20;;;;;;;11.54;58.08;101537.03;4986742;28;20054;-85
2022/04/21 02:37:45;;;;;;;0.20;0.20;;;;;;;11.53;58.22;101546.78;4985207;28;20038;-85
2022/04/21 02:40:12;;;;;;;0.10;0.10;;;;;;;11.51;58.47;101540.63;4994439;28;20046;-85
2022/04/21 02:42:39;;;;;;;0.10;0.10;;;;;;;11.52;57.62;101544.16;4994392;28;20030;-85
2022/04/21 02:45:08;;;;;;;0.20;0.20;;;;;;;11.49;58.30;101542.44;4994167;28;20058;-85
2022/04/21 02:47:36;;;;;;;0.10;0.10;;;;;;;11.48;58.70;101538.03;4992994;28;20502;-85
2022/04/21 02:50:03;;;;;;;0.28;0.28;;;;;;;11.47;58.09;101547.75;4994412;28;20057;-85
2022/04/21 02:52:29;;;;;;;0.10;0.10;;;;;;;11.44;58.85;101539.84;5007625;28;20029;-83
2022/04/21 02:57:43;;;;;;;0.08;0.08;;;;;;;11.41;58.51;101536.34;5016451;28;20050;-85
2022/04/21 03:00:10;;;;;;;0.10;0.10;;;;;;;11.38;58.48;101541.69;5020257;28;20025;-85
2022/04/21 03:02:36;;;;;;;0.08;0.08;;;;;;;11.36;57.89;101543.47;5013344;28;20026;-84
2022/04/21 03:05:02;;;;;;;0.10;0.10;;;;;;;11.33;57.97;101534.66;5005938;28;20404;-84
2022/04/21 03:07:28;;;;;;;0.32;0.32;;;;;;;11.29;58.49;101537.34;4993879;28;20065;-85
2022/04/21 03:09:55;;;;;;;0.10;0.10;;;;;;;11.27;58.21;101533.84;4988229;28;20047;-85
2022/04/21 03:12:23;;;;;;;0.10;0.10;;;;;;;11.26;57.81;101538.25;4992330;28;20030;-85
2022/04/21 03:14:49;;;;;;;0.00;0.00;;;;;;;11.23;58.55;101537.44;4988303;28;20041;-84
2022/04/21 03:17:16;;;;;;;0.10;0.10;;;;;;;11.20;58.01;101535.69;4995934;28;20030;-85
2022/04/21 03:19:42;;;;;;;0.10;0.10;;;;;;;11.16;58.40;101536.63;4986844;28;20121;-85
2022/04/21 03:25:00;;;;;;;0.10;0.10;;;;;;;11.12;58.10;101530.47;4986586;28;20047;-84
2022/04/21 03:27:29;;;;;;;0.10;0.10;;;;;;;11.07;58.16;101536.75;4992416;28;20038;-85
2022/04/21 03:29:56;;;;;;;0.10;0.10;;;;;;;11.04;58.40;101532.34;4990050;28;20033;-85
2022/04/21 03:32:22;;;;;;;0.10;0.10;;;;;;;11.04;58.24;101528.81;4984796;28;20418;-86
2022/04/21 03:34:48;;;;;;;0.10;0.10;;;;;;;11.02;58.33;101535.91;4988996;28;20298;-85
2022/04/21 03:37:15;;;;;;;0.10;0.10;;;;;;;10.99;58.15;101540.34;4986689;28;20023;-85
2022/04/21 03:39:42;;;;;;;0.10;0.10;;;;;;;10.99;58.08;101542.09;4982431;28;20033;-85
2022/04/21 03:42:19;;;;;;;0.10;0.10;;;;;;;11.05;57.76;101538.50;4986693;28;20042;-85
2022/04/21 03:44:45;;;;;;;0.25;0.25;;;;;;;10.94;58.81;101534.22;4988715;28;20106;-85
2022/04/21 03:47:11;;;;;;;0.30;0.30;;;;;;;10.93;58.71;101540.41;4994777;28;20030;-85
2022/04/21 03:49:37;;;;;;;0.10;0.10;;;;;;;10.92;59.04;101538.66;4993615;28;20058;-84
2022/04/21 03:52:04;;;;;;;0.15;0.15;;;;;;;10.92;58.78;101532.47;4994969;28;20030;-85
2022/04/21 03:54:30;;;;;;;0.10;0.10;;;;;;;10.90;58.92;101527.16;4989802;28;20041;-85
2022/04/21 03:56:56;;;;;;;0.30;0.30;;;;;;;10.90;58.81;101535.13;4988305;28;20046;-85
2022/04/21 03:59:23;;;;;;;0.10;0.10;;;;;;;10.89;58.83;101530.75;4990935;28;20065;-85
2022/04/21 04:01:53;;;;;;;0.17;0.17;;;;;;;10.88;59.42;101536.94;4993466;28;20030;-85
2022/04/21 04:04:19;;;;;;;0.10;0.10;;;;;;;10.91;58.79;101536.00;4986196;28;20034;-85
2022/04/21 04:12:17;;;;;;;0.10;0.10;;;;;;;10.88;59.47;101536.94;4992905;28;20528;-85
2022/04/21 04:14:44;;;;;;;0.28;0.28;;;;;;;10.87;59.09;101535.16;4989795;28;20045;-85
2022/04/21 04:17:10;;;;;;;0.08;0.08;;;;;;;10.87;59.13;101537.81;4991305;28;20030;-85
2022/04/21 04:19:36;;;;;;;0.10;0.10;;;;;;;10.86;59.23;101535.19;4993040;28;20023;-85
2022/04/21 04:22:03;;;;;;;0.10;0.10;;;;;;;10.83;59.26;101539.63;5003450;22;20026;-79
2022/04/21 04:24:30;;;;;;;0.10;0.10;;;;;;;10.84;58.98;101535.19;5064582;28;20608;-79
2022/04/21 04:26:56;;;;;;;0.10;0.10;;;;;;;10.83;59.16;101544.91;5058886;28;20898;-79
2022/04/21 04:29:23;;;;;;;0.10;0.10;;;;;;;10.88;58.20;101536.03;5063609;28;20033;-79
2022/04/21 04:31:50;;;;;;;0.20;0.20;;;;;;;10.88;57.83;101536.94;5063269;28;20083;-79
2022/04/21 04:34:17;;;;;;;0.10;0.10;;;;;;;10.88;57.86;101544.88;5062123;28;20021;-79
2022/04/21 04:36:44;;;;;;;0.10;0.10;;;;;;;10.89;58.09;101545.75;5059370;28;20037;-79
2022/04/21 04:39:10;;;;;;;0.10;0.10;;;;;;;10.90;58.04;101536.91;5062169;28;20036;-79
2022/04/21 04:44:22;;;;;;;0.10;0.10;;;;;;;10.90;58.34;101544.84;5076198;28;20055;-78
2022/04/21 04:46:48;;;;;;;0.10;0.10;;;;;;;10.91;58.36;101550.13;5079979;28;20033;-78
2022/04/21 04:49:14;;;;;;;0.10;0.10;;;;;;;10.91;58.87;101550.13;5067192;28;20040;-79
2022/04/21 04:51:41;;;;;;;0.68;0.68;;;;;;;10.93;58.67;101544.81;5058862;28;20049;-79
2022/04/21 04:54:09;;;;;;;0.03;0.03;;;;;;;10.94;58.54;101551.88;5056645;28;20043;-78
2022/04/21 04:56:37;;;;;;;0.30;0.30;;;;;;;10.96;58.18;101553.63;5055749;28;20029;-78
2022/04/21 04:59:04;;;;;;;0.05;0.05;;;;;;;10.99;58.35;101550.94;5055636;28;20108;-78
2022/04/21 05:01:41;;;;;;;0.10;0.10;;;;;;;11.03;58.01;101551.81;5059932;28;20491;-79
2022/04/21 05:04:15;;;;;;;0.15;0.15;;;;;;;11.05;57.84;101549.13;5060684;28;20115;-78
2022/04/21 05:06:44;;;;;;;0.10;0.10;;;;;;;11.03;58.68;101554.44;5055848;28;20349;-79
2022/04/21 05:09:13;;;;;;;0.08;0.08;;;;;;;11.06;58.29;101550.88;5053908;28;20068;-79
2022/04/21 05:11:41;;;;;;;0.10;0.10;;;;;;;11.08;58.35;101559.69;5053616;28;20036;-79
2022/04/21 05:14:08;;;;;;;0.17;0.17;;;;;;;11.09;58.90;101558.78;5054593;28;20429;-78
2022/04/21 05:16:37;;;;;;;0.10;0.10;;;;;;;11.13;58.42;101558.75;5053953;28;20044;-78
2022/04/21 05:19:04;;;;;;;0.10;0.10;;;;;;;11.12;58.68;101557.00;5054666;28;20098;-79
2022/04/21 05:21:32;;;;;;;0.10;0.10;;;;;;;11.15;58.74;101558.72;5056345;28;21593;-78
2022/04/21 05:23:59;;;;;;;3.95;0.95;;;;;;;11.18;58.74;101558.72;5056219;28;20032;-78
2022/04/21 05:26:27;;;;;;;0.20;0.20;;;;;;;11.18;58.77;101561.38;5055333;28;20028;-79
2022/04/21 05:28:54;;;;;;;0.10;0.10;;;;;;;11.23;58.57;101556.00;5055717;28;20044;-79
2022/04/21 05:31:21;;;;;;;0.10;0.10;;;;;;;11.23;58.64;101558.66;5057531;28;20119;-79
2022/04/21 05:33:48;;;;;;;1.25;0.45;;;;;;;11.25;58.62;101559.50;5056127;28;20036;-79
2022/04/21 05:36:15;;;;;;;0.10;0.10;;;;;;;11.29;59.03;101556.81;5050688;28;20029;-77
2022/04/21 05:38:41;;;;;;;0.03;0.03;;;;;;;11.34;58.73;101562.06;5053662;28;20072;-78
2022/04/21 05:41:08;;;;;;;1.65;1.50;;;;;;;11.35;59.05;101562.94;5054669;28;20033;-78
2022/04/21 05:43:42;;;;;;;0.10;0.10;;;;;;;11.46;58.66;101567.25;5051766;28;20029;-77
2022/04/21 05:46:10;;;;;;;0.15;0.15;;;;;;;11.48;58.58;101564.56;5054885;28;20044;-78
2022/04/21 05:48:37;;;;;;;0.13;0.13;;;;;;;11.52;58.96;101563.63;5056643;28;20029;-78
2022/04/21 05:51:04;;;;;;;0.10;0.10;;;;;;;11.55;59.13;101563.59;5051561;28;20033;-78
2022/04/21 05:53:36;;;;;;;0.00;0.00;;;;;;;11.64;58.16;101560.81;5054975;28;20025;-78
2022/04/21 05:56:04;;;;;;;0.10;0.10;;;;;;;11.69;58.25;101558.09;5058438;28;20045;-77
2022/04/21 05:58:30;;;;;;;0.20;0.20;;;;;;;11.74;58.48;101556.25;5062379;28;20108;-78
2022/04/21 06:00:57;;;;;;;0.90;0.90;;;;;;;11.81;57.88;101555.28;5056288;28;20376;-78
2022/04/21 06:03:23;;;;;;;0.00;0.00;;;;;;;11.85;58.35;101550.81;5053144;28;20498;-79
2022/04/21 06:05:50;;;;;;;0.10;0.10;;;;;;;11.90;57.78;101561.34;5055562;28;20039;-78
2022/04/21 06:08:16;;;;;;;0.10;0.10;;;;;;;11.94;58.09;101557.78;5051292;28;20036;-78
2022/04/21 06:10:42;;;;;;;0.45;0.45;;;;;;;11.97;58.09;101555.09;5050810;28;20371;-78
2022/04/21 06:13:08;;;;;;;0.10;0.10;;;;;;;12.03;57.45;101554.13;5049021;28;20207;-78
2022/04/21 06:15:34;;;;;;;0.10;0.10;;;;;;;12.06;57.32;101551.41;5051865;28;20029;-77
2022/04/21 06:18:01;;;;;;;0.00;0.00;;;;;;;12.12;57.22;101561.94;5052982;28;20106;-78
2022/04/21 06:20:28;;;;;;;0.00;0.00;;;;;;;12.16;57.20;101561.00;5051060;28;20059;-78
2022/04/21 06:22:54;;;;;;;0.05;0.05;;;;;;;12.23;56.64;101565.31;5049299;28;20083;-77
2022/04/21 06:25:21;;;;;;;0.10;0.10;;;;;;;12.26;56.94;101554.66;5052938;28;20737;-77
2022/04/21 06:27:48;;;;;;;0.10;0.10;;;;;;;12.33;57.28;101551.91;5056046;28;20033;-77
2022/04/21 06:30:14;;;;;;;0.15;0.15;;;;;;;12.39;56.79;101554.47;5056021;28;20029;-77
2022/04/21 06:32:41;;;;;;;0.10;0.10;;;;;;;12.44;56.66;101549.94;5055663;28;20043;-77
2022/04/21 06:35:08;;;;;;;0.85;0.50;;;;;;;12.48;56.75;101541.00;5054285;28;20078;-78
2022/04/21 06:37:35;;;;;;;0.10;0.10;;;;;;;12.50;56.86;101540.97;5052507;28;20072;-77
2022/04/21 06:40:02;;;;;;;0.10;0.10;;;;;;;12.57;56.11;101548.84;5052291;28;20397;-77
2022/04/21 06:42:28;;;;;;;0.10;0.10;;;;;;;12.62;56.47;101544.31;5052442;28;20025;-77
2022/04/21 06:48:13;;;;;;;0.10;0.10;;;;;;;12.73;56.18;101548.56;5052596;28;20041;-77
2022/04/21 06:50:26;;;;;;;0.10;0.10;;;;;;;12.78;56.17;101544.03;5052467;28;20037;-77
2022/04/21 06:52:53;;;;;;;0.10;0.10;;;;;;;12.82;56.13;101535.09;5051829;28;20570;-77
2022/04/21 06:55:19;;;;;;;0.00;0.00;;;;;;;12.90;56.46;101543.81;5054166;28;20025;-78
2022/04/21 06:57:45;;;;;;;0.13;0.13;;;;;;;12.97;56.09;101541.03;5054610;28;20043;-78
2022/04/21 07:00:11;;;;;;;0.00;0.00;;;;;;;13.01;55.82;101550.72;5056725;28;20453;-78
2022/04/21 07:02:38;;;;;;;0.10;0.10;;;;;;;13.03;55.90;101546.25;5053974;28;20509;-77
2022/04/21 07:05:14;;;;;;;0.00;0.00;;;;;;;13.14;55.33;101540.75;5057160;28;20040;-77
2022/04/21 07:07:41;;;;;;;0.00;0.00;;;;;;;13.13;55.59;101541.63;5060963;28;20130;-78
2022/04/21 07:10:07;;;;;;;0.00;0.00;;;;;;;13.20;55.37;101538.81;5062697;28;20553;-78
2022/04/21 07:12:34;;;;;;;0.08;0.08;;;;;;;13.21;55.00;101532.59;5060665;28;20056;-79
2022/04/21 07:15:04;;;;;;;0.20;0.20;;;;;;;13.33;54.60;101527.94;5058898;28;20025;-77
2022/04/21 07:17:31;;;;;;;0.40;0.30;;;;;;;13.40;54.97;101540.25;5063044;28;20086;-79
2022/04/21 07:19:58;;;;;;;0.10;0.10;;;;;;;13.48;54.68;101535.63;5064386;28;20033;-78
2022/04/21 07:22:25;;;;;;;0.22;0.22;;;;;;;13.57;54.28;101531.88;5062599;28;20390;-78
2022/04/21 07:24:52;;;;;;;0.25;0.25;;;;;;;13.63;53.91;101530.88;5063043;28;20044;-77
2022/04/21 07:27:18;;;;;;;0.10;0.10;;;;;;;13.67;54.04;101528.13;5065277;28;20399;-77
2022/04/21 07:29:44;;;;;;;0.38;0.38;;;;;;;13.74;53.45;101531.53;5065911;28;20043;-78
2022/04/21 07:32:11;;;;;;;0.10;0.10;;;;;;;13.83;53.96;101528.66;5059406;28;20059;-79
2022/04/21 07:34:37;;;;;;;0.10;0.10;;;;;;;13.90;53.73;101529.41;5059776;28;20410;-78
2022/04/21 07:37:05;;;;;;;0.10;0.10;;;;;;;13.96;53.19;101523.06;5057013;28;20029;-77
2022/04/21 07:39:31;;;;;;;0.30;0.30;;;;;;;14.06;53.28;101524.59;5055705;28;20021;-78
2022/04/21 07:41:58;;;;;;;0.25;0.25;;;;;;;14.18;53.31;101534.97;5056703;28;20033;-78
2022/04/21 07:44:27;;;;;;;0.10;0.10;;;;;;;14.26;53.44;101525.91;5058403;28;20024;-78
2022/04/21 07:46:53;;;;;;;0.00;0.00;;;;;;;14.34;52.88;101526.56;5058159;28;20548;-78
2022/04/21 07:49:51;;;;;;;0.00;0.00;;;;;;;14.40;52.93;101526.41;5060421;28;20122;-78
2022/04/21 07:54:53;;;;;;;0.05;0.05;;;;;;;14.60;52.25;101528.56;5060140;28;20083;-78
2022/04/21 07:57:19;;;;;;;0.10;0.10;;;;;;;14.69;52.19;101520.38;5060294;28;20051;-76
2022/04/21 07:59:45;;;;;;;0.00;0.00;;;;;;;14.80;51.91;101528.09;5056546;28;20041;-78
2022/04/21 08:02:12;;;;;;;0.00;0.00;;;;;;;14.89;51.62;101529.63;5064816;28;20035;-78
2022/04/21 08:04:38;;;;;;;0.00;0.00;;;;;;;14.98;51.78;101536.53;5067208;28;20067;-79
2022/04/21 08:07:05;;;;;;;0.10;0.10;;;;;;;15.05;51.54;101535.41;5067594;28;20364;-79
2022/04/21 08:09:31;;;;;;;0.00;0.00;;;;;;;15.13;51.41;101540.56;5065543;28;20029;-79
2022/04/21 08:11:58;;;;;;;1.27;1.17;;;;;;;15.18;51.00;101539.50;5062875;28;20036;-78
2022/04/21 08:14:24;;;;;;;0.43;0.43;;;;;;;15.25;51.06;101539.34;5062499;28;20044;-79
2022/04/21 08:16:53;;;;;;;0.00;0.00;;;;;;;15.31;50.76;101536.50;5066399;28;20054;-79
2022/04/21 08:19:20;;;;;;;0.22;0.17;;;;;;;15.39;50.89;101545.16;5065542;28;20025;-78
2022/04/21 08:21:47;;;;;;;0.00;0.00;;;;;;;15.49;50.27;101543.97;5058042;28;20035;-79
2022/04/21 08:32:33;;;;;;;0.65;0.65;;;;;;;15.97;50.17;101537.19;5062186;28;20048;-77
2022/04/21 08:35:01;;;;;;;0.00;0.00;;;;;;;16.11;49.07;101534.09;5056812;28;20093;-78
2022/04/21 08:37:27;;;;;;;0.00;0.00;;;;;;;16.20;49.15;101532.03;5054023;28;20130;-77
2022/04/21 08:39:55;;;;;;;0.20;0.20;;;;;;;16.26;48.63;101535.41;5054777;28;20052;-77
2022/04/21 08:42:22;;;;;;;0.40;0.40;;;;;;;16.42;49.02;101530.41;5057951;28;20024;-77
2022/04/21 08:44:49;;;;;;;0.10;0.10;;;;;;;16.48;48.23;101530.19;5060239;28;20051;-78
2022/04/21 08:47:19;;;;;;;0.30;0.30;;;;;;;16.64;48.18;101530.56;5055952;28;20029;-77
2022/04/21 08:49:49;;;;;;;0.43;0.43;;;;;;;16.79;48.48;101530.97;5048313;28;20029;-76
2022/04/21 08:52:16;;;;;;;0.30;0.30;;;;;;;16.88;47.84;101527.94;5050776;28;20029;-77
2022/04/21 08:54:42;;;;;;;1.25;1.20;;;;;;;17.00;47.78;101532.03;5052815;28;20029;-77
2022/04/21 08:57:10;;;;;;;0.00;0.00;;;;;;;17.11;47.77;101524.47;5051504;28;20120;-77
2022/04/21 08:59:36;;;;;;;0.25;0.25;;;;;;;17.22;47.59;101528.56;5050502;28;20113;-77
2022/04/21 09:02:03;;;;;;;0.00;0.00;;;;;;;17.22;44.88;101517.84;5050830;28;20041;-77
2022/04/21 09:04:30;;;;;;;0.00;0.00;;;;;;;17.27;45.99;101524.78;5050526;28;20038;-77
2022/04/21 09:07:08;;;;;;;1.85;0.68;;;;;;;17.38;46.43;101520.81;5049492;28;20086;-77
2022/04/21 09:09:34;;;;;;;0.00;0.00;;;;;;;17.42;45.62;101509.94;5051032;28;20029;-77
2022/04/21 09:12:00;;;;;;;0.00;0.00;;;;;;;17.55;46.07;101512.16;5049928;28;20028;-78
2022/04/21 09:14:26;;;;;;;0.00;0.00;;;;;;;17.58;45.58;101507.56;5056232;28;20025;-77
2022/04/21 09:16:53;;;;;;;0.10;0.10;;;;;;;17.65;45.86;101518.91;5048532;28;20101;-77
2022/04/21 09:19:19;;;;;;;0.00;0.00;;;;;;;17.75;45.94;101506.88;5055654;28;20108;-77
2022/04/21 09:21:45;;;;;;;0.00;0.00;;;;;;;17.87;45.63;101512.69;5050645;28;20047;-78
2022/04/21 09:24:27;;;;;;;0.10;0.10;;;;;;;18.03;45.08;101503.13;5057689;28;20035;-77
2022/04/21 09:26:57;;;;;;;0.00;0.00;;;;;;;18.05;45.05;101501.25;5049363;28;20032;-77
2022/04/21 09:29:25;;;;;;;0.80;0.80;;;;;;;18.15;44.44;101506.25;5049695;28;20039;-77
2022/04/21 09:32:02;;;;;;;0.00;0.00;;;;;;;18.27;43.30;101505.75;5045407;28;20041;-77
2022/04/21 09:34:29;;;;;;;0.88;0.88;;;;;;;18.38;45.01;101506.16;5049510;28;20407;-77
2022/04/21 09:36:58;;;;;;;0.00;0.00;;;;;;;18.48;43.49;101497.69;5047597;28;20048;-76
2022/04/21 09:39:24;;;;;;;0.00;0.00;;;;;;;18.54;43.68;101511.75;5045652;28;20044;-76
2022/04/21 09:41:53;;;;;;;0.00;0.00;;;;;;;18.57;42.66;101508.06;5047554;28;20115;-76
2022/04/21 09:47:19;;;;;;;0.03;0.03;;;;;;;18.70;42.62;101497.66;5048497;28;20509;-76
2022/04/21 09:49:46;;;;;;;0.10;0.10;;;;;;;18.78;43.09;101492.84;5050638;28;20479;-76
2022/04/21 09:52:13;;;;;;;0.00;0.00;;;;;;;18.83;41.91;101497.97;5048877;28;20431;-76
2022/04/21 09:54:40;;;;;;;0.00;0.00;;;;;;;18.93;42.31;101494.00;5049219;28;20040;-76
2022/04/21 09:57:07;;;;;;;0.10;0.10;;;;;;;19.05;42.22;101488.06;5048217;28;20064;-76
2022/04/21 09:59:35;;;;;;;0.00;0.00;;;;;;;19.17;42.08;101485.75;5049911;28;20033;-76
2022/04/21 10:02:03;;;;;;;0.20;0.20;;;;;;;19.28;40.94;101491.50;5047727;28;20040;-74
2022/04/21 10:04:30;;;;;;;0.00;0.00;;;;;;;19.38;41.48;101478.53;5050544;28;20017;-76
2022/04/21 10:06:57;;;;;;;0.13;0.13;;;;;;;19.45;40.96;101479.97;5050647;28;20486;-77
2022/04/21 10:09:25;;;;;;;1.35;0.57;;;;;;;19.53;40.86;101484.97;5050491;28;20032;-77
2022/04/21 10:11:52;;;;;;;0.00;0.00;;;;;;;19.62;38.55;101476.47;5048544;28;20035;-77
2022/04/21 10:14:19;;;;;;;0.00;0.00;;;;;;;19.72;39.99;101475.06;5049943;28;20036;-77
2022/04/21 10:16:46;;;;;;;0.00;0.00;;;;;;;19.77;39.29;101474.84;5050994;28;20117;-77
2022/04/21 10:19:13;;;;;;;0.00;0.00;;;;;;;19.88;39.77;101460.94;5050755;28;20528;-77
2022/04/21 10:24:25;;;;;;;0.10;0.10;;;;;;;20.11;37.57;101456.22;5133418;22;20225;-79
2022/04/21 10:26:52;;;;;;;0.00;0.00;;;;;;;20.14;36.39;101450.69;5072410;28;20596;-79
2022/04/21 10:29:23;;;;;;;0.10;0.10;;;;;;;20.24;36.11;101451.94;5072080;28;20032;-79
2022/04/21 10:37:12;;;;;;;0.00;0.00;;;;;;;20.22;35.90;101440.38;5125974;27;20409;-84
2022/04/21 10:39:40;;;;;;;0.00;0.00;;;;;;;20.37;35.82;101436.03;5112218;28;20032;-84
2022/04/21 10:42:21;;;;;;;0.10;0.10;;;;;;;20.48;33.08;101435.47;5109037;28;20064;-83
2022/04/21 11:01:22;;;;;;;0.08;0.08;;;;;;;20.87;31.52;101412.78;5114278;27;20135;-80
2022/04/21 11:04:10;;;;;;;0.00;0.00;;;;;;;21.01;31.63;101415.59;5084174;28;20051;-78
2022/04/21 11:06:46;;;;;;;0.00;0.00;;;;;;;21.13;33.36;101402.41;5092917;28;20493;-79
2022/04/21 11:09:34;;;;;;;0.10;0.10;;;;;;;21.17;32.59;101403.97;5096763;28;20024;-80
2022/04/21 11:12:00;;;;;;;0.00;0.00;;;;;;;21.15;32.54;101400.50;5091317;28;20149;-79
2022/04/21 11:14:29;;;;;;;0.00;0.00;;;;;;;21.20;32.47;101393.03;5091886;28;20056;-78
2022/04/21 11:16:57;;;;;;;0.08;0.08;;;;;;;21.27;31.88;101398.94;5092163;28;20032;-79
2022/04/21 11:22:09;;;;;;;0.10;0.10;;;;;;;21.39;31.79;101394.69;5120724;27;20141;-80
2022/04/21 11:27:34;;;;;;;0.10;0.10;;;;;;;21.59;31.88;101389.03;5145557;27;20028;-78
2022/04/21 11:30:05;;;;;;;0.00;0.00;;;;;;;21.69;31.89;101391.22;5104855;28;20497;-80
2022/04/21 11:32:31;;;;;;;0.00;0.00;;;;;;;21.71;31.13;101382.09;5104643;28;20042;-78
2022/04/21 11:35:16;;;;;;;0.10;0.10;;;;;;;21.80;31.90;101381.53;5112445;28;20024;-78
2022/04/21 11:45:58;;;;;;;0.50;0.50;;;;;;;22.08;31.02;101374.50;5075323;28;20137;-84
2022/04/21 11:48:41;;;;;;;0.20;0.20;;;;;;;22.26;30.88;101371.66;5078184;28;20037;-84
2022/04/21 11:51:09;;;;;;;0.10;0.10;;;;;;;22.27;29.34;101373.38;5063082;28;20037;-85
2022/04/21 11:53:37;;;;;;;0.10;0.10;;;;;;;22.40;30.05;101370.81;5065391;28;20107;-83
2022/04/21 11:56:05;;;;;;;0.05;0.05;;;;;;;22.43;30.04;101358.00;5076482;28;20029;-84
2022/04/21 11:58:35;;;;;;;0.00;0.00;;;;;;;22.51;30.20;101359.38;5076539;28;20028;-84
2022/04/21 12:06:45;;;;;;;0.00;0.00;;;;;;;22.67;29.40;101352.03;5070347;28;20040;-83
2022/04/21 12:09:16;;;;;;;0.00;0.00;;;;;;;22.76;30.57;101364.09;5069960;28;20029;-83
2022/04/21 12:11:55;;;;;;;0.10;0.10;;;;;;;22.92;30.33;101358.59;5070647;28;20032;-83
2022/04/21 12:14:22;;;;;;;2.38;1.40;;;;;;;23.03;29.42;101356.06;5072473;28;20044;-84
2022/04/21 12:16:54;;;;;;;0.03;0.03;;;;;;;23.17;28.60;101347.06;5062184;28;20027;-86
2022/04/21 12:19:42;;;;;;;0.00;0.00;;;;;;;23.30;29.76;101351.69;5069550;28;20446;-82
2022/04/21 12:22:13;;;;;;;0.13;0.13;;;;;;;23.27;28.31;101342.78;5070799;28;20044;-83
2022/04/21 12:30:01;;;;;;;0.08;0.08;;;;;;;23.13;28.34;101329.31;5144517;27;20143;-78
2022/04/21 12:32:32;;;;;;;0.13;0.13;;;;;;;23.26;28.76;101334.78;5110612;28;20044;-78
2022/04/21 12:35:06;;;;;;;0.17;0.17;;;;;;;23.32;28.76;101330.81;5111408;28;20040;-80
2022/04/21 12:37:35;;;;;;;0.20;0.20;;;;;;;23.39;27.61;101318.59;5112190;28;20111;-80
2022/04/21 12:40:04;;;;;;;0.00;0.00;;;;;;;23.49;28.21;101327.88;5112523;28;20024;-79
2022/04/21 12:42:31;;;;;;;0.10;0.10;;;;;;;23.49;27.75;101330.56;5105460;28;20092;-79
2022/04/21 12:44:59;;;;;;;0.00;0.00;;;;;;;23.54;28.31;101320.31;5105924;28;20104;-80
2022/04/21 12:47:26;;;;;;;0.10;0.10;;;;;;;23.55;28.57;101308.53;5111388;28;20028;-80
2022/04/21 12:58:13;;;;;;;0.00;0.00;;;;;;;23.78;28.67;101297.97;5122720;27;20942;-81
2022/04/21 13:00:42;;;;;;;0.00;0.00;;;;;;;23.99;26.74;101294.75;5091931;28;20028;-78
2022/04/21 13:03:11;;;;;;;0.63;0.32;;;;;;;24.03;27.76;101290.88;5090333;28;20039;-80